sensor_id;sensor_type;location;lat;lon;timestamp;temperature;humidity
54622;DHT22;40521;53.146;6.556;2023-03-23T00:02:05;10.00;99.90
54622;DHT22;40521;53.146;6.556;2023-03-23T00:04:31;10.00;99.90
54622;DHT22;40521;53.146;6.556;2023-03-23T00:06:56;10.10;99.90
54622;DHT22;40521;53.146;6.556;2023-03-23T00:09:22;10.10;99.90
54622;DHT22;40521;53.146;6.556;2023-03-23T00:11:50;10.20;99.90
54622;DHT22;40521;53.146;6.556;2023-03-23T00:14:16;10.20;99.90
54622;DHT22;40521;53.146;6.556;2023-03-23T00:16:42;10.30;99.90
54622;DHT22;40521;53.146;6.556;2023-03-23T00:19:09;10.30;99.90
54622;DHT22;40521;53.146;6.556;2023-03-23T00:21:36;10.40;99.90
54622;DHT22;40521;53.146;6.556;2023-03-23T00:26:32;10.50;99.90
54622;DHT22;40521;53.146;6.556;2023-03-23T00:29:00;10.50;99.90
54622;DHT22;40521;53.146;6.556;2023-03-23T00:31:26;10.50;99.90
54622;DHT22;40521;53.146;6.556;2023-03-23T00:34:00;10.50;99.90
54622;DHT22;40521;53.146;6.556;2023-03-23T00:36:27;10.50;99.90
54622;DHT22;40521;53.146;6.556;2023-03-23T00:38:52;10.60;99.90
54622;DHT22;40521;53.146;6.556;2023-03-23T00:41:18;10.50;99.90
54622;DHT22;40521;53.146;6.556;2023-03-23T00:43:43;10.50;99.90
54622;DHT22;40521;53.146;6.556;2023-03-23T00:46:09;10.50;99.90
54622;DHT22;40521;53.146;6.556;2023-03-23T00:48:35;10.50;99.90
54622;DHT22;40521;53.146;6.556;2023-03-23T00:51:02;10.50;99.90
54622;DHT22;40521;53.146;6.556;2023-03-23T00:53:32;10.50;99.90
54622;DHT22;40521;53.146;6.556;2023-03-23T00:55:57;10.50;99.90
54622;DHT22;40521;53.146;6.556;2023-03-23T00:58:23;10.50;99.90
54622;DHT22;40521;53.146;6.556;2023-03-23T01:00:48;10.40;99.90
54622;DHT22;40521;53.146;6.556;2023-03-23T01:03:14;10.40;99.90
54622;DHT22;40521;53.146;6.556;2023-03-23T01:05:43;10.30;99.90
54622;DHT22;40521;53.146;6.556;2023-03-23T01:08:12;10.20;99.90
54622;DHT22;40521;53.146;6.556;2023-03-23T01:10:38;10.10;99.90
54622;DHT22;40521;53.146;6.556;2023-03-23T01:13:05;10.10;99.90
54622;DHT22;40521;53.146;6.556;2023-03-23T01:15:31;10.10;99.90
54622;DHT22;40521;53.146;6.556;2023-03-23T01:17:56;10.10;99.90
54622;DHT22;40521;53.146;6.556;2023-03-23T01:20:22;10.10;99.90
54622;DHT22;40521;53.146;6.556;2023-03-23T01:22:48;10.10;99.90
54622;DHT22;40521;53.146;6.556;2023-03-23T01:25:14;10.00;99.90
54622;DHT22;40521;53.146;6.556;2023-03-23T01:27:39;10.00;99.90
54622;DHT22;40521;53.146;6.556;2023-03-23T01:30:06;10.00;99.90
54622;DHT22;40521;53.146;6.556;2023-03-23T01:32:32;10.00;99.90
54622;DHT22;40521;53.146;6.556;2023-03-23T01:34:58;10.00;99.90
54622;DHT22;40521;53.146;6.556;2023-03-23T01:37:24;10.00;99.90
54622;DHT22;40521;53.146;6.556;2023-03-23T01:39:55;10.00;99.90
54622;DHT22;40521;53.146;6.556;2023-03-23T01:42:24;10.00;99.90
54622;DHT22;40521;53.146;6.556;2023-03-23T01:47:17;10.10;99.90
54622;DHT22;40521;53.146;6.556;2023-03-23T01:49:44;10.10;99.90
54622;DHT22;40521;53.146;6.556;2023-03-23T01:52:29;10.10;99.90
54622;DHT22;40521;53.146;6.556;2023-03-23T01:54:55;10.10;99.90
54622;DHT22;40521;53.146;6.556;2023-03-23T01:57:22;10.20;99.90
54622;DHT22;40521;53.146;6.556;2023-03-23T01:59:50;10.20;99.90
54622;DHT22;40521;53.146;6.556;2023-03-23T02:02:17;10.20;99.90
54622;DHT22;40521;53.146;6.556;2023-03-23T02:04:44;10.20;99.90
54622;DHT22;40521;53.146;6.556;2023-03-23T02:07:11;10.20;99.90
54622;DHT22;40521;53.146;6.556;2023-03-23T02:09:37;10.20;99.90
54622;DHT22;40521;53.146;6.556;2023-03-23T02:12:03;10.20;99.90
54622;DHT22;40521;53.146;6.556;2023-03-23T02:14:29;10.30;99.90
54622;DHT22;40521;53.146;6.556;2023-03-23T02:24:52;10.30;99.90
54622;DHT22;40521;53.146;6.556;2023-03-23T02:35:08;10.30;99.90
54622;DHT22;40521;53.146;6.556;2023-03-23T02:37:36;10.30;99.90
54622;DHT22;40521;53.146;6.556;2023-03-23T02:40:07;10.30;99.90
54622;DHT22;40521;53.146;6.556;2023-03-23T02:42:37;10.30;99.90
54622;DHT22;40521;53.146;6.556;2023-03-23T02:45:05;10.30;99.90
54622;DHT22;40521;53.146;6.556;2023-03-23T02:47:32;10.30;99.90
54622;DHT22;40521;53.146;6.556;2023-03-23T02:49:59;10.30;99.90
54622;DHT22;40521;53.146;6.556;2023-03-23T02:52:26;10.30;99.90
54622;DHT22;40521;53.146;6.556;2023-03-23T02:54:52;10.40;99.90
54622;DHT22;40521;53.146;6.556;2023-03-23T02:57:19;10.30;99.90
54622;DHT22;40521;53.146;6.556;2023-03-23T02:59:45;10.30;99.90
54622;DHT22;40521;53.146;6.556;2023-03-23T03:02:12;10.40;99.90
54622;DHT22;40521;53.146;6.556;2023-03-23T03:04:40;10.40;99.90
54622;DHT22;40521;53.146;6.556;2023-03-23T03:07:10;10.30;99.90
54622;DHT22;40521;53.146;6.556;2023-03-23T03:09:42;10.30;99.90
54622;DHT22;40521;53.146;6.556;2023-03-23T03:12:21;10.30;99.90
54622;DHT22;40521;53.146;6.556;2023-03-23T03:14:54;10.30;99.90
54622;DHT22;40521;53.146;6.556;2023-03-23T03:17:23;10.40;99.90
54622;DHT22;40521;53.146;6.556;2023-03-23T03:19:50;10.30;99.90
54622;DHT22;40521;53.146;6.556;2023-03-23T03:22:18;10.30;99.90
54622;DHT22;40521;53.146;6.556;2023-03-23T03:24:46;10.30;99.90
54622;DHT22;40521;53.146;6.556;2023-03-23T03:27:13;10.30;99.90
54622;DHT22;40521;53.146;6.556;2023-03-23T03:29:42;10.30;99.90
54622;DHT22;40521;53.146;6.556;2023-03-23T03:32:16;10.30;99.90
54622;DHT22;40521;53.146;6.556;2023-03-23T03:34:42;10.30;99.90
54622;DHT22;40521;53.146;6.556;2023-03-23T03:37:08;10.30;99.90
54622;DHT22;40521;53.146;6.556;2023-03-23T03:39:34;10.30;99.90
54622;DHT22;40521;53.146;6.556;2023-03-23T03:42:00;10.30;99.90
54622;DHT22;40521;53.146;6.556;2023-03-23T03:44:26;10.30;99.90
54622;DHT22;40521;53.146;6.556;2023-03-23T03:46:51;10.30;99.90
54622;DHT22;40521;53.146;6.556;2023-03-23T03:49:17;10.30;99.90
54622;DHT22;40521;53.146;6.556;2023-03-23T03:51:43;10.30;99.90
54622;DHT22;40521;53.146;6.556;2023-03-23T03:54:08;10.30;99.90
54622;DHT22;40521;53.146;6.556;2023-03-23T03:56:34;10.30;99.90
54622;DHT22;40521;53.146;6.556;2023-03-23T03:59:06;10.30;99.90
54622;DHT22;40521;53.146;6.556;2023-03-23T04:01:33;10.20;99.90
54622;DHT22;40521;53.146;6.556;2023-03-23T04:03:59;10.20;99.90
54622;DHT22;40521;53.146;6.556;2023-03-23T04:06:25;10.20;99.90
54622;DHT22;40521;53.146;6.556;2023-03-23T04:08:53;10.10;99.90
54622;DHT22;40521;53.146;6.556;2023-03-23T04:11:20;10.10;99.90
54622;DHT22;40521;53.146;6.556;2023-03-23T04:13:46;8.90;99.90
54622;DHT22;40521;53.146;6.556;2023-03-23T04:16:11;10.00;99.90
54622;DHT22;40521;53.146;6.556;2023-03-23T04:18:37;9.90;99.90
54622;DHT22;40521;53.146;6.556;2023-03-23T04:21:03;9.90;99.90
54622;DHT22;40521;53.146;6.556;2023-03-23T04:23:30;9.80;99.90
54622;DHT22;40521;53.146;6.556;2023-03-23T04:25:59;9.30;99.90
54622;DHT22;40521;53.146;6.556;2023-03-23T04:28:25;9.40;99.90
54622;DHT22;40521;53.146;6.556;2023-03-23T04:30:51;9.30;99.90
54622;DHT22;40521;53.146;6.556;2023-03-23T04:33:24;9.20;99.90
54622;DHT22;40521;53.146;6.556;2023-03-23T04:35:50;9.10;99.90
54622;DHT22;40521;53.146;6.556;2023-03-23T04:38:17;9.10;99.90
54622;DHT22;40521;53.146;6.556;2023-03-23T04:40:45;9.10;99.90
54622;DHT22;40521;53.146;6.556;2023-03-23T04:43:11;9.30;99.90
54622;DHT22;40521;53.146;6.556;2023-03-23T04:45:37;8.70;99.90
54622;DHT22;40521;53.146;6.556;2023-03-23T04:48:07;9.60;99.90
54622;DHT22;40521;53.146;6.556;2023-03-23T04:50:33;9.70;99.90
54622;DHT22;40521;53.146;6.556;2023-03-23T04:52:59;9.60;99.90
54622;DHT22;40521;53.146;6.556;2023-03-23T04:55:33;9.60;99.90
54622;DHT22;40521;53.146;6.556;2023-03-23T04:58:05;9.60;99.90
54622;DHT22;40521;53.146;6.556;2023-03-23T05:00:31;9.60;99.90
54622;DHT22;40521;53.146;6.556;2023-03-23T05:02:57;9.50;99.90
54622;DHT22;40521;53.146;6.556;2023-03-23T05:05:24;9.60;99.90
54622;DHT22;40521;53.146;6.556;2023-03-23T05:07:50;9.60;99.90
54622;DHT22;40521;53.146;6.556;2023-03-23T05:10:16;9.60;99.90
54622;DHT22;40521;53.146;6.556;2023-03-23T05:12:42;9.60;99.90
54622;DHT22;40521;53.146;6.556;2023-03-23T05:15:09;9.60;99.90
54622;DHT22;40521;53.146;6.556;2023-03-23T05:17:35;9.60;99.90
54622;DHT22;40521;53.146;6.556;2023-03-23T05:20:01;9.60;99.90
54622;DHT22;40521;53.146;6.556;2023-03-23T05:22:29;9.60;99.90
54622;DHT22;40521;53.146;6.556;2023-03-23T05:24:58;9.60;99.90
54622;DHT22;40521;53.146;6.556;2023-03-23T05:27:24;9.60;99.90
54622;DHT22;40521;53.146;6.556;2023-03-23T05:29:58;9.70;99.90
54622;DHT22;40521;53.146;6.556;2023-03-23T05:32:25;9.70;99.90
54622;DHT22;40521;53.146;6.556;2023-03-23T05:35:00;9.70;99.90
54622;DHT22;40521;53.146;6.556;2023-03-23T05:37:27;9.70;99.90
54622;DHT22;40521;53.146;6.556;2023-03-23T05:39:53;9.70;99.90
54622;DHT22;40521;53.146;6.556;2023-03-23T05:42:23;9.70;99.90
54622;DHT22;40521;53.146;6.556;2023-03-23T05:44:49;9.70;99.90
54622;DHT22;40521;53.146;6.556;2023-03-23T05:47:15;9.70;99.90
54622;DHT22;40521;53.146;6.556;2023-03-23T05:49:41;9.70;99.90
54622;DHT22;40521;53.146;6.556;2023-03-23T05:52:07;9.70;99.90
54622;DHT22;40521;53.146;6.556;2023-03-23T05:54:32;9.70;99.90
54622;DHT22;40521;53.146;6.556;2023-03-23T05:56:59;9.70;99.90
54622;DHT22;40521;53.146;6.556;2023-03-23T05:59:25;9.70;99.90
54622;DHT22;40521;53.146;6.556;2023-03-23T06:01:51;9.70;99.90
54622;DHT22;40521;53.146;6.556;2023-03-23T06:04:17;9.70;99.90
54622;DHT22;40521;53.146;6.556;2023-03-23T06:06:42;9.70;99.90
54622;DHT22;40521;53.146;6.556;2023-03-23T06:09:08;9.70;99.90
54622;DHT22;40521;53.146;6.556;2023-03-23T06:11:35;9.70;99.90
54622;DHT22;40521;53.146;6.556;2023-03-23T06:14:00;9.80;99.90
54622;DHT22;40521;53.146;6.556;2023-03-23T06:16:27;9.80;99.90
54622;DHT22;40521;53.146;6.556;2023-03-23T06:18:52;9.80;99.90
54622;DHT22;40521;53.146;6.556;2023-03-23T06:21:18;9.80;99.90
54622;DHT22;40521;53.146;6.556;2023-03-23T06:23:44;9.80;99.90
54622;DHT22;40521;53.146;6.556;2023-03-23T06:26:11;9.90;99.90
54622;DHT22;40521;53.146;6.556;2023-03-23T06:28:37;9.90;99.90
54622;DHT22;40521;53.146;6.556;2023-03-23T06:31:04;10.00;99.90
54622;DHT22;40521;53.146;6.556;2023-03-23T06:33:32;10.00;99.90
54622;DHT22;40521;53.146;6.556;2023-03-23T06:35:57;10.00;99.90
54622;DHT22;40521;53.146;6.556;2023-03-23T06:38:23;10.00;99.90
54622;DHT22;40521;53.146;6.556;2023-03-23T06:40:51;10.00;99.90
54622;DHT22;40521;53.146;6.556;2023-03-23T06:43:16;10.10;99.90
54622;DHT22;40521;53.146;6.556;2023-03-23T06:45:42;10.10;99.90
54622;DHT22;40521;53.146;6.556;2023-03-23T06:48:08;10.00;99.90
54622;DHT22;40521;53.146;6.556;2023-03-23T06:50:33;10.00;99.90
54622;DHT22;40521;53.146;6.556;2023-03-23T06:52:59;10.00;99.90
54622;DHT22;40521;53.146;6.556;2023-03-23T06:55:25;10.00;99.90
54622;DHT22;40521;53.146;6.556;2023-03-23T06:57:50;9.90;99.90
54622;DHT22;40521;53.146;6.556;2023-03-23T07:00:16;9.80;99.90
54622;DHT22;40521;53.146;6.556;2023-03-23T07:02:42;9.70;99.90
54622;DHT22;40521;53.146;6.556;2023-03-23T07:05:09;9.60;99.90
54622;DHT22;40521;53.146;6.556;2023-03-23T07:07:35;9.50;99.90
54622;DHT22;40521;53.146;6.556;2023-03-23T07:10:02;9.50;99.90
54622;DHT22;40521;53.146;6.556;2023-03-23T07:12:27;9.50;99.90
54622;DHT22;40521;53.146;6.556;2023-03-23T07:14:54;9.50;99.90
54622;DHT22;40521;53.146;6.556;2023-03-23T07:17:19;9.60;99.90
54622;DHT22;40521;53.146;6.556;2023-03-23T07:19:45;9.60;99.90
54622;DHT22;40521;53.146;6.556;2023-03-23T07:22:11;9.70;99.90
54622;DHT22;40521;53.146;6.556;2023-03-23T07:24:37;9.80;99.90
54622;DHT22;40521;53.146;6.556;2023-03-23T07:27:02;9.90;99.90
54622;DHT22;40521;53.146;6.556;2023-03-23T07:29:28;10.00;99.90
54622;DHT22;40521;53.146;6.556;2023-03-23T07:31:53;10.10;99.90
54622;DHT22;40521;53.146;6.556;2023-03-23T07:34:19;10.20;99.90
54622;DHT22;40521;53.146;6.556;2023-03-23T07:36:45;10.30;99.90
54622;DHT22;40521;53.146;6.556;2023-03-23T07:39:12;10.40;99.90
54622;DHT22;40521;53.146;6.556;2023-03-23T07:41:37;10.40;99.90
54622;DHT22;40521;53.146;6.556;2023-03-23T07:44:03;10.50;99.90
54622;DHT22;40521;53.146;6.556;2023-03-23T07:46:29;10.60;99.90
54622;DHT22;40521;53.146;6.556;2023-03-23T07:48:55;10.60;99.90
54622;DHT22;40521;53.146;6.556;2023-03-23T07:51:22;10.60;99.90
54622;DHT22;40521;53.146;6.556;2023-03-23T07:53:47;10.60;99.90
54622;DHT22;40521;53.146;6.556;2023-03-23T07:56:13;10.60;99.90
54622;DHT22;40521;53.146;6.556;2023-03-23T07:58:40;10.60;99.90
54622;DHT22;40521;53.146;6.556;2023-03-23T08:01:06;10.60;99.90
54622;DHT22;40521;53.146;6.556;2023-03-23T08:03:32;10.50;99.90
54622;DHT22;40521;53.146;6.556;2023-03-23T08:05:58;10.50;99.90
54622;DHT22;40521;53.146;6.556;2023-03-23T08:08:24;10.50;99.90
54622;DHT22;40521;53.146;6.556;2023-03-23T08:10:50;10.50;99.90
54622;DHT22;40521;53.146;6.556;2023-03-23T08:13:16;10.50;99.90
54622;DHT22;40521;53.146;6.556;2023-03-23T08:15:41;10.60;99.90
54622;DHT22;40521;53.146;6.556;2023-03-23T08:18:08;10.60;99.90
54622;DHT22;40521;53.146;6.556;2023-03-23T08:20:34;10.60;99.90
54622;DHT22;40521;53.146;6.556;2023-03-23T08:23:00;10.60;99.90
54622;DHT22;40521;53.146;6.556;2023-03-23T08:25:27;10.60;99.90
54622;DHT22;40521;53.146;6.556;2023-03-23T08:27:58;10.60;99.90
54622;DHT22;40521;53.146;6.556;2023-03-23T08:30:24;10.70;99.90
54622;DHT22;40521;53.146;6.556;2023-03-23T08:32:51;10.80;99.90
54622;DHT22;40521;53.146;6.556;2023-03-23T08:35:17;10.80;99.90
54622;DHT22;40521;53.146;6.556;2023-03-23T08:37:43;10.80;99.90
54622;DHT22;40521;53.146;6.556;2023-03-23T08:40:09;10.70;99.90
54622;DHT22;40521;53.146;6.556;2023-03-23T08:42:36;10.70;99.90
54622;DHT22;40521;53.146;6.556;2023-03-23T08:45:03;10.70;99.90
54622;DHT22;40521;53.146;6.556;2023-03-23T08:47:29;10.70;99.90
54622;DHT22;40521;53.146;6.556;2023-03-23T08:49:55;10.70;99.90
54622;DHT22;40521;53.146;6.556;2023-03-23T08:52:20;10.70;99.90
54622;DHT22;40521;53.146;6.556;2023-03-23T08:54:46;10.60;99.90
54622;DHT22;40521;53.146;6.556;2023-03-23T08:57:13;10.80;99.90
54622;DHT22;40521;53.146;6.556;2023-03-23T08:59:40;10.80;99.90
54622;DHT22;40521;53.146;6.556;2023-03-23T09:02:08;10.80;99.90
54622;DHT22;40521;53.146;6.556;2023-03-23T09:04:34;10.90;99.90
54622;DHT22;40521;53.146;6.556;2023-03-23T09:06:59;11.00;99.90
54622;DHT22;40521;53.146;6.556;2023-03-23T09:09:25;11.10;99.90
54622;DHT22;40521;53.146;6.556;2023-03-23T09:11:52;11.20;99.90
54622;DHT22;40521;53.146;6.556;2023-03-23T09:14:18;11.40;99.90
54622;DHT22;40521;53.146;6.556;2023-03-23T09:16:43;11.50;99.90
54622;DHT22;40521;53.146;6.556;2023-03-23T09:19:10;11.70;99.90
54622;DHT22;40521;53.146;6.556;2023-03-23T09:21:37;11.60;99.90
54622;DHT22;40521;53.146;6.556;2023-03-23T09:24:03;11.60;99.90
54622;DHT22;40521;53.146;6.556;2023-03-23T09:26:30;11.60;99.90
54622;DHT22;40521;53.146;6.556;2023-03-23T09:28:56;11.60;99.90
54622;DHT22;40521;53.146;6.556;2023-03-23T09:31:22;11.60;99.90
54622;DHT22;40521;53.146;6.556;2023-03-23T09:33:49;11.70;99.90
54622;DHT22;40521;53.146;6.556;2023-03-23T09:36:18;11.50;99.90
54622;DHT22;40521;53.146;6.556;2023-03-23T09:38:46;11.30;99.90
54622;DHT22;40521;53.146;6.556;2023-03-23T09:53:48;11.00;99.90
54622;DHT22;40521;53.146;6.556;2023-03-23T09:56:15;11.00;99.90
54622;DHT22;40521;53.146;6.556;2023-03-23T10:01:40;10.90;99.90
54622;DHT22;40521;53.146;6.556;2023-03-23T10:04:19;10.90;99.90
54622;DHT22;40521;53.146;6.556;2023-03-23T10:06:47;10.90;99.90
54622;DHT22;40521;53.146;6.556;2023-03-23T10:09:14;11.00;99.90
54622;DHT22;40521;53.146;6.556;2023-03-23T10:17:15;11.30;99.90
54622;DHT22;40521;53.146;6.556;2023-03-23T10:22:32;11.40;99.90
54622;DHT22;40521;53.146;6.556;2023-03-23T10:30:07;11.40;99.90
54622;DHT22;40521;53.146;6.556;2023-03-23T10:32:42;11.50;99.90
54622;DHT22;40521;53.146;6.556;2023-03-23T10:35:13;11.60;99.90
54622;DHT22;40521;53.146;6.556;2023-03-23T10:37:43;11.60;99.90
54622;DHT22;40521;53.146;6.556;2023-03-23T10:40:17;11.60;99.90
54622;DHT22;40521;53.146;6.556;2023-03-23T10:42:43;11.80;99.90
54622;DHT22;40521;53.146;6.556;2023-03-23T10:45:15;12.00;99.90
54622;DHT22;40521;53.146;6.556;2023-03-23T10:47:44;12.20;99.90
54622;DHT22;40521;53.146;6.556;2023-03-23T10:50:12;12.40;99.90
54622;DHT22;40521;53.146;6.556;2023-03-23T10:52:40;12.40;99.90
54622;DHT22;40521;53.146;6.556;2023-03-23T10:57:36;12.40;99.90
54622;DHT22;40521;53.146;6.556;2023-03-23T11:02:41;12.40;99.90
54622;DHT22;40521;53.146;6.556;2023-03-23T11:05:18;12.50;99.90
54622;DHT22;40521;53.146;6.556;2023-03-23T11:07:48;12.60;99.90
54622;DHT22;40521;53.146;6.556;2023-03-23T11:10:49;12.70;99.90
54622;DHT22;40521;53.146;6.556;2023-03-23T11:13:13;12.90;99.90
54622;DHT22;40521;53.146;6.556;2023-03-23T11:15:43;12.90;99.90
54622;DHT22;40521;53.146;6.556;2023-03-23T11:20:44;13.30;99.90
54622;DHT22;40521;53.146;6.556;2023-03-23T11:28:34;13.30;99.90
54622;DHT22;40521;53.146;6.556;2023-03-23T11:31:01;13.50;99.90
54622;DHT22;40521;53.146;6.556;2023-03-23T11:33:35;13.90;99.90
54622;DHT22;40521;53.146;6.556;2023-03-23T11:36:01;14.10;99.90
54622;DHT22;40521;53.146;6.556;2023-03-23T11:38:27;14.30;99.90
54622;DHT22;40521;53.146;6.556;2023-03-23T11:40:53;14.20;99.90
54622;DHT22;40521;53.146;6.556;2023-03-23T11:43:23;14.20;99.90
54622;DHT22;40521;53.146;6.556;2023-03-23T11:46:01;14.30;99.90
54622;DHT22;40521;53.146;6.556;2023-03-23T11:48:34;14.40;99.90
54622;DHT22;40521;53.146;6.556;2023-03-23T11:51:02;14.60;99.90
54622;DHT22;40521;53.146;6.556;2023-03-23T11:53:37;14.60;99.90
54622;DHT22;40521;53.146;6.556;2023-03-23T11:56:17;14.60;99.90
54622;DHT22;40521;53.146;6.556;2023-03-23T11:58:45;14.80;99.90
54622;DHT22;40521;53.146;6.556;2023-03-23T12:01:13;14.70;99.90
54622;DHT22;40521;53.146;6.556;2023-03-23T12:06:39;14.70;99.90
54622;DHT22;40521;53.146;6.556;2023-03-23T12:12:18;14.80;99.90
54622;DHT22;40521;53.146;6.556;2023-03-23T12:14:43;14.80;99.90
54622;DHT22;40521;53.146;6.556;2023-03-23T12:27:35;14.90;99.90
54622;DHT22;40521;53.146;6.556;2023-03-23T12:33:21;15.30;99.90
54622;DHT22;40521;53.146;6.556;2023-03-23T12:36:07;15.20;99.90
54622;DHT22;40521;53.146;6.556;2023-03-23T12:38:41;15.20;99.90
54622;DHT22;40521;53.146;6.556;2023-03-23T12:41:21;15.10;99.90
54622;DHT22;40521;53.146;6.556;2023-03-23T12:46:25;14.80;99.90
54622;DHT22;40521;53.146;6.556;2023-03-23T12:51:34;16.10;99.90
54622;DHT22;40521;53.146;6.556;2023-03-23T13:02:32;15.30;99.90
54622;DHT22;40521;53.146;6.556;2023-03-23T13:05:08;15.40;99.90
54622;DHT22;40521;53.146;6.556;2023-03-23T13:10:38;15.30;99.90
54622;DHT22;40521;53.146;6.556;2023-03-23T13:13:09;15.30;99.90
54622;DHT22;40521;53.146;6.556;2023-03-23T13:15:53;13.90;99.90
54622;DHT22;40521;53.146;6.556;2023-03-23T13:18:27;14.90;99.90
54622;DHT22;40521;53.146;6.556;2023-03-23T13:23:36;14.10;99.90
54622;DHT22;40521;53.146;6.556;2023-03-23T13:26:05;14.00;99.90
54622;DHT22;40521;53.146;6.556;2023-03-23T13:28:34;14.00;99.90
54622;DHT22;40521;53.146;6.556;2023-03-23T13:31:16;14.00;99.90
54622;DHT22;40521;53.146;6.556;2023-03-23T13:33:50;14.20;99.90
54622;DHT22;40521;53.146;6.556;2023-03-23T13:36:26;14.30;99.90
54622;DHT22;40521;53.146;6.556;2023-03-23T13:38:52;14.70;99.90
54622;DHT22;40521;53.146;6.556;2023-03-23T13:41:20;14.50;99.90
54622;DHT22;40521;53.146;6.556;2023-03-23T13:46:53;15.30;99.90
54622;DHT22;40521;53.146;6.556;2023-03-23T13:49:25;15.40;99.90
54622;DHT22;40521;53.146;6.556;2023-03-23T13:51:58;15.70;99.90
54622;DHT22;40521;53.146;6.556;2023-03-23T13:54:29;15.60;99.90
54622;DHT22;40521;53.146;6.556;2023-03-23T13:59:58;16.60;99.90
54622;DHT22;40521;53.146;6.556;2023-03-23T14:02:29;15.60;99.90
54622;DHT22;40521;53.146;6.556;2023-03-23T14:05:08;14.90;99.90
54622;DHT22;40521;53.146;6.556;2023-03-23T14:07:50;15.40;99.90
54622;DHT22;40521;53.146;6.556;2023-03-23T14:10:17;15.30;99.90
54622;DHT22;40521;53.146;6.556;2023-03-23T14:12:49;15.30;99.90
54622;DHT22;40521;53.146;6.556;2023-03-23T14:15:18;14.40;99.90
54622;DHT22;40521;53.146;6.556;2023-03-23T14:17:43;15.20;99.90
54622;DHT22;40521;53.146;6.556;2023-03-23T14:20:19;14.90;99.90
54622;DHT22;40521;53.146;6.556;2023-03-23T14:22:52;14.70;99.90
54622;DHT22;40521;53.146;6.556;2023-03-23T14:25:21;14.70;99.90
54622;DHT22;40521;53.146;6.556;2023-03-23T14:27:50;13.40;99.90
54622;DHT22;40521;53.146;6.556;2023-03-23T14:30:21;14.50;99.90
54622;DHT22;40521;53.146;6.556;2023-03-23T14:32:47;14.50;99.90
54622;DHT22;40521;53.146;6.556;2023-03-23T14:35:29;15.10;99.90
54622;DHT22;40521;53.146;6.556;2023-03-23T14:37:57;14.60;99.90
54622;DHT22;40521;53.146;6.556;2023-03-23T14:40:25;14.60;99.90
54622;DHT22;40521;53.146;6.556;2023-03-23T14:42:54;14.60;99.90
54622;DHT22;40521;53.146;6.556;2023-03-23T14:45:25;14.70;99.90
54622;DHT22;40521;53.146;6.556;2023-03-23T14:47:57;14.90;99.90
54622;DHT22;40521;53.146;6.556;2023-03-23T14:50:26;13.60;99.90
54622;DHT22;40521;53.146;6.556;2023-03-23T14:52:52;15.00;99.90
54622;DHT22;40521;53.146;6.556;2023-03-23T14:55:19;13.80;99.90
54622;DHT22;40521;53.146;6.556;2023-03-23T14:57:46;14.80;99.90
54622;DHT22;40521;53.146;6.556;2023-03-23T15:00:23;14.80;99.90
54622;DHT22;40521;53.146;6.556;2023-03-23T15:02:58;14.80;99.90
54622;DHT22;40521;53.146;6.556;2023-03-23T15:05:29;14.90;99.90
54622;DHT22;40521;53.146;6.556;2023-03-23T15:07:59;14.70;99.90
54622;DHT22;40521;53.146;6.556;2023-03-23T15:10:27;14.80;99.90
54622;DHT22;40521;53.146;6.556;2023-03-23T15:12:55;14.70;99.90
54622;DHT22;40521;53.146;6.556;2023-03-23T15:17:48;14.70;99.90
54622;DHT22;40521;53.146;6.556;2023-03-23T15:20:27;14.50;99.90
54622;DHT22;40521;53.146;6.556;2023-03-23T15:23:40;14.90;99.90
54622;DHT22;40521;53.146;6.556;2023-03-23T15:25:49;13.50;99.90
54622;DHT22;40521;53.146;6.556;2023-03-23T15:28:22;14.60;99.90
54622;DHT22;40521;53.146;6.556;2023-03-23T15:31:03;14.70;99.90
54622;DHT22;40521;53.146;6.556;2023-03-23T15:33:36;14.40;99.90
54622;DHT22;40521;53.146;6.556;2023-03-23T15:36:15;14.70;99.90
54622;DHT22;40521;53.146;6.556;2023-03-23T15:38:51;14.50;99.90
54622;DHT22;40521;53.146;6.556;2023-03-23T15:41:32;14.40;99.90
54622;DHT22;40521;53.146;6.556;2023-03-23T15:47:16;13.30;99.90
54622;DHT22;40521;53.146;6.556;2023-03-23T15:52:35;14.60;99.90
54622;DHT22;40521;53.146;6.556;2023-03-23T15:55:03;14.40;99.90
54622;DHT22;40521;53.146;6.556;2023-03-23T15:57:29;14.30;99.90
54622;DHT22;40521;53.146;6.556;2023-03-23T16:00:06;14.30;99.90
54622;DHT22;40521;53.146;6.556;2023-03-23T16:02:32;14.40;99.90
54622;DHT22;40521;53.146;6.556;2023-03-23T16:05:04;14.30;99.90
54622;DHT22;40521;53.146;6.556;2023-03-23T16:07:35;14.00;99.90
54622;DHT22;40521;53.146;6.556;2023-03-23T16:10:03;14.10;99.90
54622;DHT22;40521;53.146;6.556;2023-03-23T16:12:29;14.00;99.90
54622;DHT22;40521;53.146;6.556;2023-03-23T16:14:57;14.00;99.90
54622;DHT22;40521;53.146;6.556;2023-03-23T16:17:23;13.90;99.90
54622;DHT22;40521;53.146;6.556;2023-03-23T16:19:48;13.80;99.90
54622;DHT22;40521;53.146;6.556;2023-03-23T16:22:14;13.90;99.90
54622;DHT22;40521;53.146;6.556;2023-03-23T16:24:47;13.60;99.90
54622;DHT22;40521;53.146;6.556;2023-03-23T16:27:16;13.50;99.90
54622;DHT22;40521;53.146;6.556;2023-03-23T16:29:42;14.10;99.90
54622;DHT22;40521;53.146;6.556;2023-03-23T16:32:10;12.80;99.90
54622;DHT22;40521;53.146;6.556;2023-03-23T16:34:36;12.50;99.90
54622;DHT22;40521;53.146;6.556;2023-03-23T16:37:04;13.40;99.90
54622;DHT22;40521;53.146;6.556;2023-03-23T16:39:33;13.50;99.90
54622;DHT22;40521;53.146;6.556;2023-03-23T16:42:19;13.60;99.90
54622;DHT22;40521;53.146;6.556;2023-03-23T16:44:47;13.50;99.90
54622;DHT22;40521;53.146;6.556;2023-03-23T16:47:15;13.60;99.90
54622;DHT22;40521;53.146;6.556;2023-03-23T16:49:50;13.90;99.90
54622;DHT22;40521;53.146;6.556;2023-03-23T16:52:17;13.30;99.90
54622;DHT22;40521;53.146;6.556;2023-03-23T16:54:43;13.20;99.90
54622;DHT22;40521;53.146;6.556;2023-03-23T16:57:11;13.30;99.90
54622;DHT22;40521;53.146;6.556;2023-03-23T16:59:37;13.20;99.90
54622;DHT22;40521;53.146;6.556;2023-03-23T17:02:02;13.20;99.90
54622;DHT22;40521;53.146;6.556;2023-03-23T17:04:28;13.10;99.90
54622;DHT22;40521;53.146;6.556;2023-03-23T17:06:57;11.70;99.90
54622;DHT22;40521;53.146;6.556;2023-03-23T17:09:24;11.80;99.90
54622;DHT22;40521;53.146;6.556;2023-03-23T17:11:50;12.90;99.90
54622;DHT22;40521;53.146;6.556;2023-03-23T17:14:15;12.90;99.90
54622;DHT22;40521;53.146;6.556;2023-03-23T17:16:41;12.80;99.90
54622;DHT22;40521;53.146;6.556;2023-03-23T17:19:06;12.80;99.90
54622;DHT22;40521;53.146;6.556;2023-03-23T17:21:32;12.80;99.90
54622;DHT22;40521;53.146;6.556;2023-03-23T17:23:58;12.70;99.90
54622;DHT22;40521;53.146;6.556;2023-03-23T17:26:23;12.60;99.90
54622;DHT22;40521;53.146;6.556;2023-03-23T17:28:49;12.60;99.90
54622;DHT22;40521;53.146;6.556;2023-03-23T17:31:15;11.30;99.90
54622;DHT22;40521;53.146;6.556;2023-03-23T17:33:40;12.50;99.90
54622;DHT22;40521;53.146;6.556;2023-03-23T17:36:07;12.40;99.90